ADDS METAR Data INFO
IDs: Format: Raw Decoded Include TAF

Data at: 2253 UTC 16 Jan 2018

KFAY 162153Z 12003KT 10SM CLR 09/M05 A3036 RMK AO2 SLP278 T00891050
KFAY 162053Z 16003KT 10SM CLR 09/M06 A3035 RMK AO2 SLP274 T00941061 56016
KFAY 161953Z 35006KT 10SM CLR 10/M06 A3036 RMK AO2 SLP277 T01001056
KFAY 161853Z 34004KT 10SM CLR 09/M06 A3037 RMK AO2 SLP281 T00941056
KFAY 161753Z 00000KT 10SM CLR 08/M06 A3040 RMK AO2 SLP289 T00831056 10083 21050 58031
KFAY 161653Z 25003KT 10SM CLR 07/M06 A3044 RMK AO2 SLP305 T00671061
KFAY 161553Z 00000KT 10SM CLR 06/M04 A3047 RMK AO2 SLP315 T00561044
KFAY 161453Z 00000KT 10SM CLR 03/M04 A3049 RMK AO2 SLP321 T00281044 53010
KFAY 161353Z 00000KT 10SM CLR M01/M06 A3047 RMK AO2 SLP315 T10061056
KFAY 161253Z 00000KT 10SM CLR M04/M07 A3047 RMK AO2 SLP315 T10391067
KFAY 161153Z 00000KT 10SM CLR M04/M08 A3046 RMK AO2 SLP311 T10391078 11017 21050 53004
KFAY 161053Z 00000KT 10SM CLR M05/M08 A3045 RMK AO2 SLP308 T10501078
KFAY 160953Z 00000KT 10SM CLR M03/M08 A3045 RMK AO2 SLP308 T10331078
KFAY 160853Z 00000KT 10SM CLR M03/M07 A3045 RMK AO2 SLP307 T10331072 53003
KFAY 160753Z 31003KT 10SM CLR M02/M08 A3044 RMK AO2 SLP305 T10221078
KFAY 160653Z 30003KT 10SM CLR M04/M07 A3044 RMK AO2 SLP303 T10391072
KFAY 160553Z 00000KT 10SM CLR M02/M08 A3044 RMK AO2 SLP304 T10221078 10017 21022 58008
KFAY 160453Z 35003KT 10SM CLR M01/M09 A3045 RMK AO2 SLP307 T10111094 400671061
KFAY 160353Z 00000KT 9SM CLR M02/M08 A3046 RMK AO2 SLP311 T10221078
KFAY 160253Z 00000KT 10SM CLR M01/M08 A3046 RMK AO2 SLP313 T10061078 50009
KFAY 160153Z 33003KT 10SM CLR 00/M09 A3047 RMK AO2 SLP316 T00001094
KFAY 160053Z 00000KT 10SM CLR 01/M07 A3046 RMK AO2 SLP312 T00061072
KFAY 152353Z 35005KT 10SM CLR 02/M08 A3044 RMK AO2 SLP305 T00171083 10067 20011 53002
KFAY 152253Z 33004KT 10SM CLR 03/M09 A3044 RMK AO2 SLP304 T00331094
KFAY 152153Z 35004KT 10SM CLR 06/M09 A3043 RMK AO2 SLP300 T00561089
KFAY 152053Z 33007KT 10SM CLR 06/M09 A3043 RMK AO2 SLP302 T00611089 55009
KFAY 151953Z 33007KT 310V010 10SM CLR 06/M08 A3042 RMK AO2 SLP296 T00561083
KFAY 151853Z 36005KT 10SM CLR 05/M08 A3043 RMK AO2 SLP301 T00501078
KFAY 151753Z VRB06KT 10SM CLR 03/M07 A3046 RMK AO2 SLP311 T00331072 10033 21061 58026
KFAY 151653Z 34005KT 10SM CLR 01/M08 A3050 RMK AO2 SLP325 T00111083
KFAY 151553Z 02008KT 10SM CLR 00/M09 A3053 RMK AO2 SLP335 T00001094
KFAY 151453Z 36008KT 10SM CLR M02/M11 A3054 RMK AO2 SLP339 T10221111 50012
KFAY 151353Z 34011KT 10SM CLR M04/M13 A3055 RMK AO2 SLP341 T10391128
KFAY 151253Z 35009KT 10SM CLR M06/M13 A3051 RMK AO2 SLP329 T10561133
KFAY 151153Z 35008KT 10SM CLR M06/M13 A3050 RMK AO2 SLP327 T10561133 11044 21056 53007